createdAt,value
2019-06-08T00:00:22.492Z,19.07
2019-06-08T00:02:53.981Z,19.00
2019-06-08T00:05:25.272Z,18.95
2019-06-08T00:07:56.624Z,18.89
2019-06-08T00:10:27.846Z,18.87
2019-06-08T00:12:59.162Z,18.83
2019-06-08T00:15:30.428Z,18.79
2019-06-08T00:18:01.687Z,18.74
2019-06-08T00:20:32.956Z,18.71
2019-06-08T00:23:04.319Z,18.70
2019-06-08T00:25:35.550Z,18.73
2019-06-08T00:28:06.909Z,18.73
2019-06-08T00:30:39.302Z,18.63
2019-06-08T00:33:10.472Z,18.53
2019-06-08T00:35:41.735Z,18.43
2019-06-08T00:38:12.999Z,18.36
2019-06-08T00:40:44.788Z,18.30
2019-06-08T00:43:17.272Z,18.26
2019-06-08T00:45:48.880Z,18.18
2019-06-08T00:48:21.150Z,18.10
2019-06-08T00:50:52.468Z,18.04
2019-06-08T00:53:23.731Z,17.96
2019-06-08T00:55:54.984Z,17.88
2019-06-08T00:58:26.413Z,17.85
2019-06-08T01:00:57.728Z,17.74
2019-06-08T01:03:30.025Z,17.77
2019-06-08T01:06:01.418Z,18.21
2019-06-08T01:08:32.643Z,18.01
2019-06-08T01:11:03.909Z,18.01
2019-06-08T01:13:35.136Z,18.02
2019-06-08T01:16:06.392Z,18.00
2019-06-08T01:18:37.681Z,18.05
2019-06-08T01:21:08.941Z,18.06
2019-06-08T01:23:40.239Z,18.06
2019-06-08T01:26:11.516Z,18.09
2019-06-08T01:28:42.733Z,18.13
2019-06-08T01:31:14.051Z,18.16
2019-06-08T01:33:45.246Z,18.18
2019-06-08T01:36:16.484Z,18.18
2019-06-08T01:38:47.703Z,18.13
2019-06-08T01:41:18.971Z,18.08
2019-06-08T01:43:50.196Z,18.09
2019-06-08T01:46:21.910Z,18.08
2019-06-08T01:48:53.271Z,18.05
2019-06-08T01:51:24.634Z,17.99
2019-06-08T01:53:57.033Z,17.94
2019-06-08T01:56:29.203Z,17.90
2019-06-08T01:59:00.831Z,17.87
2019-06-08T02:01:32.205Z,17.83
2019-06-08T02:04:03.586Z,17.81
2019-06-08T02:06:34.855Z,17.84
2019-06-08T02:09:08.620Z,17.89
2019-06-08T02:11:39.913Z,17.93
2019-06-08T02:14:11.335Z,17.99
2019-06-08T02:16:42.650Z,18.02
2019-06-08T02:19:14.107Z,18.03
2019-06-08T02:21:45.377Z,18.06
2019-06-08T02:24:16.608Z,18.07
2019-06-08T02:26:47.838Z,18.10
2019-06-08T02:29:19.224Z,18.11
2019-06-08T02:31:50.559Z,18.14
2019-06-08T02:34:21.820Z,18.16
2019-06-08T02:36:53.074Z,18.18
2019-06-08T02:39:24.413Z,18.19
2019-06-08T02:41:55.799Z,18.19
2019-06-08T02:44:28.299Z,18.21
2019-06-08T02:46:59.968Z,18.21
2019-06-08T02:49:31.241Z,18.21
2019-06-08T02:52:02.508Z,18.23
2019-06-08T02:54:37.222Z,18.22
2019-06-08T02:57:07.847Z,18.22
2019-06-08T02:59:40.939Z,18.19
2019-06-08T03:02:12.068Z,18.19
2019-06-08T03:04:43.330Z,18.20
2019-06-08T03:07:16.779Z,18.20
2019-06-08T03:09:49.570Z,18.20
2019-06-08T03:12:21.563Z,18.20
2019-06-08T03:14:54.626Z,18.20
2019-06-08T03:17:25.847Z,18.20
2019-06-08T03:19:57.156Z,18.20
2019-06-08T03:22:28.461Z,18.21
2019-06-08T03:25:00.259Z,18.20
2019-06-08T03:27:32.646Z,18.20
2019-06-08T03:30:16.268Z,18.18
2019-06-08T03:32:47.034Z,18.12
2019-06-08T03:35:11.085Z,18.08
2019-06-08T03:37:44.276Z,18.05
2019-06-08T03:40:16.452Z,18.00
2019-06-08T03:42:49.001Z,17.96
2019-06-08T03:45:20.687Z,17.91
2019-06-08T03:47:51.927Z,17.87
2019-06-08T03:50:23.185Z,17.82
2019-06-08T03:52:54.476Z,17.77
2019-06-08T03:55:25.773Z,17.70
2019-06-08T03:57:57.059Z,17.64
2019-06-08T04:00:28.536Z,17.61
2019-06-08T04:03:01.434Z,17.56
2019-06-08T04:05:33.776Z,17.53
2019-06-08T04:08:05.118Z,17.49
2019-06-08T04:10:37.658Z,17.46
2019-06-08T04:13:11.558Z,17.45
2019-06-08T04:15:42.661Z,17.38
2019-06-08T04:18:14.855Z,17.37
2019-06-08T04:20:48.508Z,17.35
2019-06-08T04:23:19.306Z,17.32
2019-06-08T04:25:50.791Z,17.24
2019-06-08T04:28:23.020Z,17.17
2019-06-08T04:30:54.210Z,17.16
2019-06-08T04:33:25.494Z,17.14
2019-06-08T04:35:56.690Z,17.12
2019-06-08T04:38:27.930Z,17.08
2019-06-08T04:40:59.083Z,17.05
2019-06-08T04:43:30.305Z,17.07
2019-06-08T04:46:01.586Z,17.11
2019-06-08T04:48:32.862Z,17.13
2019-06-08T04:51:04.245Z,17.13
2019-06-08T04:53:35.515Z,17.12
2019-06-08T04:56:06.765Z,17.09
2019-06-08T04:58:39.801Z,17.07
2019-06-08T05:01:11.035Z,17.05
2019-06-08T05:03:43.279Z,17.07
2019-06-08T05:06:14.623Z,17.10
2019-06-08T05:08:47.208Z,17.12
2019-06-08T05:11:18.793Z,17.16
2019-06-08T05:13:50.004Z,17.17
2019-06-08T05:16:21.224Z,17.19
2019-06-08T05:18:52.677Z,17.20
2019-06-08T05:21:23.857Z,17.23
2019-06-08T05:23:58.931Z,17.29
2019-06-08T05:26:28.146Z,17.31
2019-06-08T05:28:59.289Z,17.33
2019-06-08T05:31:30.525Z,17.37
2019-06-08T05:34:01.829Z,17.39
2019-06-08T05:36:33.540Z,17.41
2019-06-08T05:39:07.164Z,17.44
2019-06-08T05:41:39.381Z,17.46
2019-06-08T05:44:11.779Z,17.51
2019-06-08T05:46:43.736Z,17.56
2019-06-08T05:49:15.009Z,17.58
2019-06-08T05:51:46.184Z,17.56
2019-06-08T05:54:17.471Z,17.56
2019-06-08T05:56:50.255Z,17.54
2019-06-08T05:59:22.601Z,17.53
2019-06-08T06:01:53.847Z,17.53
2019-06-08T06:04:25.153Z,17.51
2019-06-08T06:06:56.621Z,17.47
2019-06-08T06:09:28.016Z,17.45
2019-06-08T06:11:59.185Z,17.45
2019-06-08T06:14:30.683Z,17.42
2019-06-08T06:17:01.945Z,17.40
2019-06-08T06:19:34.822Z,17.42
2019-06-08T06:22:06.136Z,17.45
2019-06-08T06:24:37.381Z,17.45
2019-06-08T06:27:08.560Z,17.46
2019-06-08T06:29:39.785Z,17.48
2019-06-08T06:32:11.114Z,17.50
2019-06-08T06:34:43.802Z,17.53
2019-06-08T06:37:15.115Z,17.55
2019-06-08T06:39:46.337Z,17.56
2019-06-08T06:42:17.631Z,17.56
2019-06-08T06:44:49.359Z,17.55
2019-06-08T06:47:21.837Z,17.53
2019-06-08T06:49:52.988Z,17.52
2019-06-08T06:52:24.205Z,17.50
2019-06-08T06:54:55.402Z,17.46
2019-06-08T06:57:26.559Z,17.45
2019-06-08T06:59:57.782Z,17.46
2019-06-08T07:02:29.149Z,17.51
2019-06-08T07:05:00.502Z,17.56
2019-06-08T07:07:31.759Z,17.60
2019-06-08T07:10:04.294Z,17.64
2019-06-08T07:12:35.646Z,17.68
2019-06-08T07:15:07.745Z,17.72
2019-06-08T07:17:39.037Z,17.75
2019-06-08T07:20:10.254Z,17.79
2019-06-08T07:22:41.520Z,17.84
2019-06-08T07:25:12.746Z,17.83
2019-06-08T07:27:44.021Z,17.84
2019-06-08T07:30:15.997Z,17.85
2019-06-08T07:32:48.122Z,17.88
2019-06-08T07:35:21.435Z,17.90
2019-06-08T07:37:53.714Z,17.92
2019-06-08T07:40:24.972Z,17.93
2019-06-08T07:42:56.744Z,17.97
2019-06-08T07:45:29.187Z,18.01
2019-06-08T07:48:00.713Z,18.04
2019-06-08T07:50:31.898Z,18.07
2019-06-08T07:53:03.182Z,18.13
2019-06-08T07:55:34.984Z,18.21
2019-06-08T07:58:06.303Z,18.29
2019-06-08T08:00:37.541Z,18.32
2019-06-08T08:03:10.410Z,18.32
2019-06-08T08:05:41.709Z,18.28
2019-06-08T08:08:12.867Z,18.29
2019-06-08T08:10:44.110Z,18.30
2019-06-08T08:13:15.411Z,18.29
2019-06-08T08:15:46.580Z,18.29
2019-06-08T08:18:17.825Z,18.32
2019-06-08T08:20:49.455Z,18.36
2019-06-08T08:23:20.771Z,18.40
2019-06-08T08:25:53.077Z,18.46
2019-06-08T08:28:24.536Z,18.48
2019-06-08T08:30:58.567Z,18.52
2019-06-08T08:33:28.766Z,18.56
2019-06-08T08:36:01.835Z,18.56
2019-06-08T08:38:32.802Z,18.58
2019-06-08T08:41:07.645Z,18.56
2019-06-08T08:43:37.731Z,18.59
2019-06-08T08:46:09.126Z,18.59
2019-06-08T08:48:40.349Z,18.61
2019-06-08T08:51:11.846Z,18.61
2019-06-08T08:53:43.133Z,18.61
2019-06-08T08:56:15.512Z,18.64
2019-06-08T08:58:47.770Z,18.66
2019-06-08T09:01:20.573Z,18.67
2019-06-08T09:03:55.577Z,18.68
2019-06-08T09:06:24.881Z,18.67
2019-06-08T09:08:59.694Z,18.68
2019-06-08T09:11:29.109Z,18.67
2019-06-08T09:14:05.121Z,18.65
2019-06-08T09:16:34.284Z,18.64
2019-06-08T09:19:07.898Z,18.67
2019-06-08T09:21:38.599Z,18.69
2019-06-08T09:24:10.186Z,18.65
2019-06-08T09:26:41.782Z,18.67
2019-06-08T09:29:13.173Z,18.67
2019-06-08T09:31:44.570Z,18.66
2019-06-08T09:34:19.290Z,18.67
2019-06-08T09:36:49.033Z,18.69
2019-06-08T09:39:20.388Z,18.69
2019-06-08T09:41:53.751Z,18.71
2019-06-08T09:44:26.099Z,18.73
2019-06-08T09:47:02.771Z,18.77
2019-06-08T09:49:31.339Z,18.85
2019-06-08T09:52:04.919Z,18.95
2019-06-08T09:54:38.246Z,19.06
2019-06-08T09:57:09.491Z,19.13
2019-06-08T09:59:42.865Z,19.16
2019-06-08T10:02:14.283Z,19.19
2019-06-08T10:04:45.672Z,19.19
2019-06-08T10:07:18.631Z,19.23
2019-06-08T10:09:50.310Z,19.30
2019-06-08T10:12:21.779Z,19.34
2019-06-08T10:14:54.469Z,19.40
2019-06-08T10:17:27.781Z,19.49
2019-06-08T10:20:00.655Z,19.57
2019-06-08T10:22:31.777Z,19.67
2019-06-08T10:25:06.576Z,19.74
2019-06-08T10:27:38.444Z,19.81
2019-06-08T10:30:10.307Z,19.88
2019-06-08T10:32:41.779Z,19.95
2019-06-08T10:35:13.061Z,20.03
2019-06-08T10:37:44.467Z,20.11
2019-06-08T10:40:18.549Z,20.15
2019-06-08T10:42:48.636Z,20.20
2019-06-08T10:45:22.401Z,20.25
2019-06-08T10:47:53.603Z,20.30
2019-06-08T10:50:28.684Z,20.34
2019-06-08T10:53:02.308Z,20.38
2019-06-08T10:55:31.668Z,20.45
2019-06-08T10:58:04.385Z,20.44
2019-06-08T11:00:38.689Z,20.45
2019-06-08T11:03:10.534Z,20.48
2019-06-08T11:05:42.000Z,20.54
2019-06-08T11:08:14.712Z,20.56
2019-06-08T11:10:47.487Z,20.57
2019-06-08T11:13:19.900Z,20.56
2019-06-08T11:15:51.155Z,20.59
2019-06-08T11:18:22.365Z,20.64
2019-06-08T11:20:53.587Z,20.64
2019-06-08T11:23:24.904Z,20.66
2019-06-08T11:26:03.244Z,20.70
2019-06-08T11:28:28.940Z,20.77
2019-06-08T11:31:01.780Z,20.79
2019-06-08T11:33:34.433Z,20.83
2019-06-08T11:36:09.987Z,20.90
2019-06-08T11:38:38.642Z,20.97
2019-06-08T11:41:13.146Z,21.00
2019-06-08T11:43:42.748Z,21.02
2019-06-08T11:46:14.049Z,21.02
2019-06-08T11:48:45.253Z,21.02
2019-06-08T11:51:16.645Z,21.04
2019-06-08T11:53:51.267Z,21.05
2019-06-08T11:56:20.932Z,21.08
2019-06-08T11:58:52.678Z,21.06
2019-06-08T12:01:23.948Z,21.07
2019-06-08T12:03:57.819Z,21.11
2019-06-08T12:06:28.445Z,21.10
2019-06-08T12:09:00.273Z,21.09
2019-06-08T12:11:32.155Z,21.11
2019-06-08T12:14:03.355Z,21.14
2019-06-08T12:16:34.590Z,21.19
2019-06-08T12:19:06.804Z,21.28
2019-06-08T12:21:38.789Z,21.59
2019-06-08T12:24:10.437Z,21.53
2019-06-08T12:26:42.067Z,21.58
2019-06-08T12:29:14.562Z,21.59
2019-06-08T12:31:46.261Z,21.60
2019-06-08T12:34:18.502Z,21.61
2019-06-08T12:36:49.902Z,21.62
2019-06-08T12:39:21.510Z,21.62
2019-06-08T12:41:52.959Z,21.65
2019-06-08T12:44:26.172Z,21.71
2019-06-08T12:46:58.539Z,21.72
2019-06-08T12:49:29.921Z,21.70
2019-06-08T12:52:01.325Z,21.66
2019-06-08T12:54:32.643Z,21.68
2019-06-08T12:57:03.794Z,21.73
2019-06-08T12:59:34.936Z,21.78
2019-06-08T13:02:08.914Z,21.85
2019-06-08T13:04:39.184Z,21.86
2019-06-08T13:07:11.601Z,21.88
2019-06-08T13:09:43.421Z,21.94
2019-06-08T13:12:15.122Z,21.96
2019-06-08T13:14:47.721Z,21.99
2019-06-08T13:17:21.165Z,22.03
2019-06-08T13:19:52.256Z,22.06
2019-06-08T13:22:27.815Z,22.11
2019-06-08T13:25:14.419Z,22.18
2019-06-08T13:27:29.431Z,22.24
2019-06-08T13:30:00.652Z,22.25
2019-06-08T13:32:33.387Z,22.25
2019-06-08T13:35:04.593Z,22.28
2019-06-08T13:37:35.781Z,22.35
2019-06-08T13:40:08.257Z,22.41
2019-06-08T13:42:39.506Z,22.47
2019-06-08T13:45:11.447Z,22.51
2019-06-08T13:47:42.695Z,22.59
2019-06-08T13:50:14.493Z,22.63
2019-06-08T13:52:45.758Z,22.63
2019-06-08T13:55:36.293Z,22.60
2019-06-08T13:57:49.960Z,22.58
2019-06-08T14:00:32.516Z,22.57
2019-06-08T14:03:04.526Z,22.47
2019-06-08T14:05:38.511Z,22.40
2019-06-08T14:08:10.949Z,22.40
2019-06-08T14:10:41.803Z,22.43
2019-06-08T14:13:13.131Z,22.48
2019-06-08T14:15:44.276Z,22.52
2019-06-08T14:18:18.491Z,22.55
2019-06-08T14:20:48.560Z,22.56
2019-06-08T14:23:21.672Z,22.51
2019-06-08T14:25:56.646Z,22.45
2019-06-08T14:28:26.620Z,22.45
2019-06-08T14:30:59.400Z,22.47
2019-06-08T14:33:33.153Z,22.47
2019-06-08T14:36:03.631Z,22.47
2019-06-08T14:38:38.539Z,22.43
2019-06-08T14:41:07.785Z,22.43
2019-06-08T14:43:39.949Z,22.35
2019-06-08T14:46:11.266Z,22.30
2019-06-08T14:48:45.214Z,22.29
2019-06-08T14:51:15.426Z,22.31
2019-06-08T14:53:48.541Z,22.31
2019-06-08T14:56:21.025Z,22.26
2019-06-08T14:58:52.474Z,22.20
2019-06-08T15:01:25.358Z,22.17
2019-06-08T15:03:58.611Z,22.18
2019-06-08T15:06:33.959Z,22.17
2019-06-08T15:09:02.751Z,22.12
2019-06-08T15:11:37.958Z,22.09
2019-06-08T15:14:08.679Z,22.04
2019-06-08T15:16:41.879Z,22.07
2019-06-08T15:19:12.766Z,22.10
2019-06-08T15:21:43.973Z,22.12
2019-06-08T15:24:15.191Z,22.04
2019-06-08T15:26:48.846Z,21.91
2019-06-08T15:29:19.269Z,21.83
2019-06-08T15:31:50.515Z,21.87
2019-06-08T15:34:21.715Z,21.95
2019-06-08T15:36:52.953Z,21.99
2019-06-08T15:39:25.545Z,22.05
2019-06-08T15:41:59.954Z,22.09
2019-06-08T15:44:30.744Z,22.08
2019-06-08T15:47:03.166Z,22.04
2019-06-08T15:49:34.464Z,22.02
2019-06-08T15:52:05.713Z,22.02
2019-06-08T15:54:40.476Z,22.00
2019-06-08T15:57:09.825Z,21.93
2019-06-08T15:59:41.965Z,21.86
2019-06-08T16:02:13.357Z,21.82
2019-06-08T16:04:44.595Z,21.77
2019-06-08T16:07:16.774Z,21.76
2019-06-08T16:09:48.203Z,21.75
2019-06-08T16:12:19.373Z,21.75
2019-06-08T16:14:50.558Z,21.77
2019-06-08T16:17:21.780Z,21.79
2019-06-08T16:19:53.325Z,21.83
2019-06-08T16:22:25.745Z,21.84
2019-06-08T16:24:57.031Z,21.87
2019-06-08T16:27:28.221Z,21.88
2019-06-08T16:30:00.641Z,21.90
2019-06-08T16:32:33.518Z,21.91
2019-06-08T16:35:05.119Z,21.91
2019-06-08T16:37:36.346Z,21.92
2019-06-08T16:40:07.696Z,21.91
2019-06-08T16:42:38.868Z,21.90
2019-06-08T16:45:10.175Z,21.90
2019-06-08T16:47:43.716Z,21.89
2019-06-08T16:50:24.087Z,21.85
2019-06-08T16:52:48.389Z,21.84
2019-06-08T16:55:19.672Z,21.80
2019-06-08T16:57:50.866Z,21.76
2019-06-08T17:00:31.456Z,21.72
2019-06-08T17:02:55.482Z,21.67
2019-06-08T17:05:26.698Z,21.66
2019-06-08T17:07:57.874Z,21.66
2019-06-08T17:10:30.398Z,21.65
2019-06-08T17:13:01.747Z,21.65
2019-06-08T17:15:34.083Z,21.65
2019-06-08T17:18:05.415Z,21.67
2019-06-08T17:20:36.763Z,21.68
2019-06-08T17:23:08.009Z,21.70
2019-06-08T17:25:40.535Z,21.71
2019-06-08T17:28:12.107Z,21.74
2019-06-08T17:30:43.302Z,21.77
2019-06-08T17:33:14.514Z,21.80
2019-06-08T17:35:45.737Z,21.84
2019-06-08T17:38:16.994Z,21.87
2019-06-08T17:40:48.183Z,21.94
2019-06-08T17:43:19.325Z,21.99
2019-06-08T17:45:50.685Z,22.05
2019-06-08T17:48:21.968Z,22.13
2019-06-08T17:50:53.229Z,22.21
2019-06-08T17:53:25.594Z,22.25
2019-06-08T17:55:56.902Z,22.25
2019-06-08T17:58:28.091Z,22.23
2019-06-08T18:00:59.337Z,22.12
2019-06-08T18:03:30.559Z,22.03
2019-06-08T18:06:01.744Z,21.95
2019-06-08T18:08:33.789Z,21.89
2019-06-08T18:11:05.142Z,21.82
2019-06-08T18:13:39.055Z,21.73
2019-06-08T18:16:09.431Z,21.69
2019-06-08T18:18:42.316Z,21.62
2019-06-08T18:21:13.564Z,21.55
2019-06-08T18:23:45.304Z,21.50
2019-06-08T18:26:17.247Z,21.45
2019-06-08T18:28:48.727Z,21.42
2019-06-08T18:31:19.920Z,21.37
2019-06-08T18:33:51.261Z,21.33
2019-06-08T18:36:22.445Z,21.31
2019-06-08T18:38:53.738Z,21.28
2019-06-08T18:41:27.022Z,21.24
2019-06-08T18:43:58.426Z,21.21
2019-06-08T18:46:29.739Z,21.14
2019-06-08T18:49:02.115Z,21.07
2019-06-08T18:51:33.405Z,21.01
2019-06-08T18:54:11.332Z,20.94
2019-06-08T18:56:40.068Z,20.87
2019-06-08T18:59:10.609Z,20.83
2019-06-08T19:01:42.169Z,20.78
2019-06-08T19:04:14.693Z,20.75
2019-06-08T19:06:48.386Z,20.72
2019-06-08T19:09:19.339Z,20.68
2019-06-08T19:11:50.792Z,20.64
2019-06-08T19:14:22.323Z,20.95
2019-06-08T19:16:54.836Z,21.09
2019-06-08T19:19:52.317Z,20.82
2019-06-08T19:22:44.668Z,20.73
2019-06-08T19:25:17.619Z,20.67
2019-06-08T19:27:53.124Z,20.64
2019-06-08T19:30:24.255Z,20.58
2019-06-08T19:32:55.129Z,20.56
2019-06-08T19:35:27.381Z,20.54
2019-06-08T19:37:58.741Z,20.51
2019-06-08T19:40:30.071Z,20.49
2019-06-08T19:43:01.683Z,20.46
2019-06-08T19:45:33.183Z,20.42
2019-06-08T19:48:04.421Z,20.72
2019-06-08T19:50:35.611Z,20.52
2019-06-08T19:53:07.333Z,20.45
2019-06-08T19:55:39.348Z,20.75
2019-06-08T19:58:10.650Z,20.50
2019-06-08T20:00:42.374Z,20.78
2019-06-08T20:03:14.467Z,20.48
2019-06-08T20:05:46.771Z,20.74
2019-06-08T20:08:18.668Z,20.82
2019-06-08T20:10:50.797Z,20.88
2019-06-08T20:13:22.364Z,20.58
2019-06-08T20:15:58.312Z,20.48
2019-06-08T20:18:27.935Z,20.43
2019-06-08T20:20:59.432Z,20.37
2019-06-08T20:23:30.636Z,20.33
2019-06-08T20:26:01.938Z,20.31
2019-06-08T20:28:34.277Z,20.28
2019-06-08T20:31:07.464Z,20.24
2019-06-08T20:33:38.480Z,20.23
2019-06-08T20:36:09.646Z,20.20
2019-06-08T20:38:43.758Z,20.15
2019-06-08T20:41:13.660Z,20.11
2019-06-08T20:43:47.757Z,20.06
2019-06-08T20:46:20.262Z,20.01
2019-06-08T20:48:51.997Z,19.98
2019-06-08T20:51:23.692Z,19.93
2019-06-08T20:53:57.171Z,19.86
2019-06-08T20:56:28.193Z,19.82
2019-06-08T20:58:59.501Z,19.77
2019-06-08T21:01:30.817Z,19.73
2019-06-08T21:04:03.765Z,19.69
2019-06-08T21:06:35.025Z,19.66
2019-06-08T21:09:07.933Z,19.61
2019-06-08T21:11:39.364Z,19.95
2019-06-08T21:14:10.675Z,19.71
2019-06-08T21:16:41.863Z,19.62
2019-06-08T21:19:13.048Z,19.53
2019-06-08T21:21:45.619Z,19.48
2019-06-08T21:24:17.410Z,19.43
2019-06-08T21:26:51.258Z,19.38
2019-06-08T21:29:21.613Z,19.34
2019-06-08T21:31:55.094Z,19.30
2019-06-08T21:34:25.763Z,19.24
2019-06-08T21:37:00.684Z,19.18
2019-06-08T21:39:29.872Z,19.15
2019-06-08T21:42:03.021Z,19.11
2019-06-08T21:44:34.063Z,19.08
2019-06-08T21:47:07.705Z,19.06
2019-06-08T21:49:38.543Z,19.03
2019-06-08T21:52:09.907Z,19.40
2019-06-08T21:54:41.103Z,19.53
2019-06-08T21:57:12.485Z,19.27
2019-06-08T21:59:43.804Z,19.18
2019-06-08T22:02:15.251Z,19.13
2019-06-08T22:04:47.773Z,19.48
2019-06-08T22:07:19.225Z,19.22
2019-06-08T22:09:50.498Z,19.53
2019-06-08T22:12:21.781Z,19.62
2019-06-08T22:14:53.012Z,19.32
2019-06-08T22:17:24.102Z,19.22
2019-06-08T22:19:55.340Z,19.14
2019-06-08T22:22:26.503Z,19.07
2019-06-08T22:25:00.982Z,18.97
2019-06-08T22:27:31.425Z,18.89
2019-06-08T22:30:09.800Z,18.80
2019-06-08T22:32:38.275Z,18.73
2019-06-08T22:35:08.385Z,18.66
2019-06-08T22:37:39.580Z,18.60
2019-06-08T22:40:10.778Z,18.58
2019-06-08T22:42:41.931Z,18.57
2019-06-08T22:45:13.272Z,18.54
2019-06-08T22:47:44.467Z,18.53
2019-06-08T22:50:18.401Z,18.51
2019-06-08T22:52:48.771Z,18.50
2019-06-08T22:55:19.974Z,18.49
2019-06-08T22:57:51.179Z,18.47
2019-06-08T23:00:24.805Z,18.44
2019-06-08T23:02:56.760Z,18.42
2019-06-08T23:05:28.275Z,18.37
2019-06-08T23:08:04.324Z,18.32
2019-06-08T23:10:32.368Z,18.25
2019-06-08T23:13:04.364Z,18.19
2019-06-08T23:15:36.445Z,18.14
2019-06-08T23:18:09.429Z,18.09
2019-06-08T23:20:40.456Z,18.01
2019-06-08T23:23:11.633Z,17.98
2019-06-08T23:25:42.867Z,17.97
2019-06-08T23:28:14.056Z,17.90
2019-06-08T23:30:47.690Z,17.86
2019-06-08T23:33:19.192Z,17.83
2019-06-08T23:36:32.322Z,17.81
2019-06-08T23:38:23.250Z,17.81
2019-06-08T23:40:54.451Z,17.84
2019-06-08T23:43:28.024Z,17.86
2019-06-08T23:46:00.882Z,17.88
2019-06-08T23:48:32.564Z,17.88
2019-06-08T23:51:04.330Z,17.89
2019-06-08T23:53:38.038Z,17.85
2019-06-08T23:56:11.740Z,17.82
2019-06-08T23:58:41.413Z,17.79
